Amoy Dream — VRHD5 — position and weather

sailwx.info

Track history (hours):
 
Tides and Currents Weather Stations Pressure Air Temp Water Temp Dewpoint Dewpoint Depression Visibility Wind Speed Wind Dir Waves Ship Positions

Amoy Dream

Last reported at 2014-Oct-01 07:33 UTC. Time now 2014-Oct-01 08:10 UTC.
Position N 40°20' E 121°48'.

Length 190 m; draft 12.8 m.

Type: Cargo ship. MMSI: 477826600.

Date/timePositionNaut miles runAvg speedWind from/ knotsBaromVisibWave heightAir tempDewpointWater temp
2014-Oct-01 07:33N 40°20' E 121°48'1312.6
2014-Oct-01 06:32N 40°31' E 121°57'10 1.4
2014-Sep-30 23:27N 40°41' E 121°60'0 0.0
2014-Sep-30 21:33N 40°41' E 121°60'0 0.0
2014-Sep-30 20:33N 40°41' E 121°60'0 0.0
2014-Sep-30 18:21N 40°41' E 121°60'0 0.1
2014-Sep-30 17:33N 40°41' E 121°60'0 0.0
2014-Sep-30 16:33N 40°41' E 121°60'0 0.0
2014-Sep-30 15:33N 40°41' E 121°60'0 0.0
2014-Sep-30 14:33N 40°41' E 121°60'0 0.0
2014-Sep-30 13:33N 40°41' E 121°60'0 0.0
2014-Sep-30 09:27N 40°41' E 121°60'0 0.0
2014-Sep-30 08:27N 40°41' E 121°60'0 0.0
2014-Sep-30 03:27N 40°41' E 121°60'0 0.0
2014-Sep-30 02:27N 40°41' E 121°60'0 0.0
2014-Sep-30 01:27N 40°41' E 121°60'0 0.0
2014-Sep-29 22:09N 40°41' E 121°60'0 0.0
2014-Sep-28 16:21N 40°41' E 121°60'0 0.0
2014-Sep-28 06:15N 40°41' E 121°60'0 0.0
2014-Sep-28 05:27N 40°41' E 121°60'0 0.0
2014-Sep-28 02:27N 40°41' E 121°60'0 0.0
2014-Sep-27 23:18N 40°41' E 121°60'2 2.8
2014-Sep-27 22:32N 40°39' E 121°58'9 8.2
2014-Sep-27 21:29N 40°31' E 121°56'9 8.8
2014-Sep-27 20:29N 40°23' E 121°52'0 0.1
2014-Sep-27 17:25N 40°22' E 121°53'0 0.2
2014-Sep-27 16:31N 40°22' E 121°53'0 0.0
2014-Sep-27 15:25N 40°22' E 121°53'0 0.0
2014-Sep-27 14:13N 40°22' E 121°53'0 0.1
2014-Sep-27 11:32N 40°22' E 121°52'120 9.1
2014-Sep-26 22:25N 38°25' E 121°20'3310.9
2014-Sep-26 19:21N 38°06' E 121°55'910.9
2014-Sep-26 18:32N 38°02' E 122°04'2710.8
2014-Sep-26 16:03N 37°46' E 122°32'510.7
2014-Sep-26 15:33N 37°43' E 122°37'1110.8
2014-Sep-26 14:32N 37°34' E 122°46'1411.7
2014-Sep-26 13:18N 37°21' E 122°53'1012.8
2014-Sep-26 12:32N 37°11' E 122°54'1313.0
2014-Sep-26 11:33N 36°59' E 122°54'1312.6
2014-Sep-26 10:33N 36°46' E 122°54'5112.0
2014-Sep-26 06:16N 35°55' E 122°54'29611.4
2014-Sep-25 04:25N 30°59' E 122°59'1012.0
2014-Sep-25 03:33N 30°49' E 122°60'1711.8
2014-Sep-25 02:08N 30°32' E 123°00'811.7
2014-Sep-25 01:28N 30°24' E 123°00'1412.4
2014-Sep-25 00:18N 30°10' E 122°60'1210.9
2014-Sep-24 23:10N 29°58' E 122°55'710.8
2014-Sep-24 22:31N 29°51' E 122°53'1110.4
2014-Sep-24 21:31N 29°41' E 122°51'1010.2
2014-Sep-24 20:30N 29°31' E 122°47'1010.1
2014-Sep-24 19:29N 29°22' E 122°42'1010.6
2014-Sep-24 18:32N 29°14' E 122°35'1110.9
2014-Sep-24 17:30N 29°04' E 122°29'39310.9
2014-Sep-23 05:23N 22°56' E 119°55'910.6
2014-Sep-23 04:33N 22°47' E 119°56'1111.2
2014-Sep-23 03:33N 22°36' E 119°57'1110.6
2014-Sep-23 02:33N 22°25' E 119°56'1111.3
2014-Sep-23 01:33N 22°14' E 119°56'  
Track history (hours):
 
Tides and Currents Weather Stations Pressure Air Temp Water Temp Dewpoint Dewpoint Depression Visibility Wind Speed Wind Dir Waves Ship Positions

Amoy Dream

Last reported at 2014-Oct-01 07:33 UTC. Time now 2014-Oct-01 08:10 UTC.
Position N 40°20' E 121°48'.

Length 190 m; draft 12.8 m.

Type: Cargo ship. MMSI: 477826600.

Date/timePositionNaut miles runAvg speedWind from/ knotsBaromVisibWave heightAir tempDewpointWater temp
2014-Oct-01 07:33N 40°20' E 121°48'1312.6
2014-Oct-01 06:32N 40°31' E 121°57'10 1.4
2014-Sep-30 23:27N 40°41' E 121°60'0 0.0
2014-Sep-30 21:33N 40°41' E 121°60'0 0.0
2014-Sep-30 20:33N 40°41' E 121°60'0 0.0
2014-Sep-30 18:21N 40°41' E 121°60'0 0.1
2014-Sep-30 17:33N 40°41' E 121°60'0 0.0
2014-Sep-30 16:33N 40°41' E 121°60'0 0.0
2014-Sep-30 15:33N 40°41' E 121°60'0 0.0
2014-Sep-30 14:33N 40°41' E 121°60'0 0.0
2014-Sep-30 13:33N 40°41' E 121°60'0 0.0
2014-Sep-30 09:27N 40°41' E 121°60'0 0.0
2014-Sep-30 08:27N 40°41' E 121°60'0 0.0
2014-Sep-30 03:27N 40°41' E 121°60'0 0.0
2014-Sep-30 02:27N 40°41' E 121°60'0 0.0
2014-Sep-30 01:27N 40°41' E 121°60'0 0.0
2014-Sep-29 22:09N 40°41' E 121°60'0 0.0
2014-Sep-28 16:21N 40°41' E 121°60'0 0.0
2014-Sep-28 06:15N 40°41' E 121°60'0 0.0
2014-Sep-28 05:27N 40°41' E 121°60'0 0.0
2014-Sep-28 02:27N 40°41' E 121°60'0 0.0
2014-Sep-27 23:18N 40°41' E 121°60'2 2.8
2014-Sep-27 22:32N 40°39' E 121°58'9 8.2
2014-Sep-27 21:29N 40°31' E 121°56'9 8.8
2014-Sep-27 20:29N 40°23' E 121°52'0 0.1
2014-Sep-27 17:25N 40°22' E 121°53'0 0.2
2014-Sep-27 16:31N 40°22' E 121°53'0 0.0
2014-Sep-27 15:25N 40°22' E 121°53'0 0.0
2014-Sep-27 14:13N 40°22' E 121°53'0 0.1
2014-Sep-27 11:32N 40°22' E 121°52'120 9.1
2014-Sep-26 22:25N 38°25' E 121°20'3310.9
2014-Sep-26 19:21N 38°06' E 121°55'910.9
2014-Sep-26 18:32N 38°02' E 122°04'2710.8
2014-Sep-26 16:03N 37°46' E 122°32'510.7
2014-Sep-26 15:33N 37°43' E 122°37'1110.8
2014-Sep-26 14:32N 37°34' E 122°46'1411.7
2014-Sep-26 13:18N 37°21' E 122°53'1012.8
2014-Sep-26 12:32N 37°11' E 122°54'1313.0
2014-Sep-26 11:33N 36°59' E 122°54'1312.6
2014-Sep-26 10:33N 36°46' E 122°54'5112.0
2014-Sep-26 06:16N 35°55' E 122°54'29611.4
2014-Sep-25 04:25N 30°59' E 122°59'1012.0
2014-Sep-25 03:33N 30°49' E 122°60'1711.8
2014-Sep-25 02:08N 30°32' E 123°00'811.7
2014-Sep-25 01:28N 30°24' E 123°00'1412.4
2014-Sep-25 00:18N 30°10' E 122°60'1210.9
2014-Sep-24 23:10N 29°58' E 122°55'710.8
2014-Sep-24 22:31N 29°51' E 122°53'1110.4
2014-Sep-24 21:31N 29°41' E 122°51'1010.2
2014-Sep-24 20:30N 29°31' E 122°47'1010.1
2014-Sep-24 19:29N 29°22' E 122°42'1010.6
2014-Sep-24 18:32N 29°14' E 122°35'1110.9
2014-Sep-24 17:30N 29°04' E 122°29'39310.9
2014-Sep-23 05:23N 22°56' E 119°55'910.6
2014-Sep-23 04:33N 22°47' E 119°56'1111.2
2014-Sep-23 03:33N 22°36' E 119°57'1110.6
2014-Sep-23 02:33N 22°25' E 119°56'1111.3
2014-Sep-23 01:33N 22°14' E 119°56'  

Dump ship's entire track history